sensor_id;sensor_type;location;lat;lon;timestamp;temperature;humidity
59469;DHT22;45277;52.768;18.262;2022-08-06T00:01:13;20.70;99.90
59469;DHT22;45277;52.768;18.262;2022-08-06T00:02:45;20.60;99.90
59469;DHT22;45277;52.768;18.262;2022-08-06T00:04:18;20.60;99.90
59469;DHT22;45277;52.768;18.262;2022-08-06T00:05:51;20.50;99.90
59469;DHT22;45277;52.768;18.262;2022-08-06T00:07:22;20.60;99.90
59469;DHT22;45277;52.768;18.262;2022-08-06T00:08:54;20.50;99.90
59469;DHT22;45277;52.768;18.262;2022-08-06T00:10:25;20.50;99.90
59469;DHT22;45277;52.768;18.262;2022-08-06T00:12:02;20.40;99.90
59469;DHT22;45277;52.768;18.262;2022-08-06T00:13:35;20.40;99.90
59469;DHT22;45277;52.768;18.262;2022-08-06T00:15:08;20.40;99.90
59469;DHT22;45277;52.768;18.262;2022-08-06T00:16:40;20.40;99.90
59469;DHT22;45277;52.768;18.262;2022-08-06T00:18:25;20.30;99.90
59469;DHT22;45277;52.768;18.262;2022-08-06T00:20:06;20.30;99.90
59469;DHT22;45277;52.768;18.262;2022-08-06T00:21:39;20.30;99.90
59469;DHT22;45277;52.768;18.262;2022-08-06T00:23:12;20.30;99.90
59469;DHT22;45277;52.768;18.262;2022-08-06T00:24:44;20.30;99.90
59469;DHT22;45277;52.768;18.262;2022-08-06T00:26:16;20.30;99.90
59469;DHT22;45277;52.768;18.262;2022-08-06T00:27:48;20.30;99.90
59469;DHT22;45277;52.768;18.262;2022-08-06T00:29:28;20.30;99.90
59469;DHT22;45277;52.768;18.262;2022-08-06T00:31:04;20.30;99.90
59469;DHT22;45277;52.768;18.262;2022-08-06T00:32:36;20.30;99.90
59469;DHT22;45277;52.768;18.262;2022-08-06T00:34:07;20.30;99.90
59469;DHT22;45277;52.768;18.262;2022-08-06T00:35:40;20.30;99.90
59469;DHT22;45277;52.768;18.262;2022-08-06T00:37:11;20.30;99.90
59469;DHT22;45277;52.768;18.262;2022-08-06T00:38:44;20.30;99.90
59469;DHT22;45277;52.768;18.262;2022-08-06T00:40:16;20.30;99.90
59469;DHT22;45277;52.768;18.262;2022-08-06T00:41:52;20.20;99.90
59469;DHT22;45277;52.768;18.262;2022-08-06T00:43:23;20.20;99.90
59469;DHT22;45277;52.768;18.262;2022-08-06T00:44:55;20.30;99.90
59469;DHT22;45277;52.768;18.262;2022-08-06T00:46:28;20.20;99.90
59469;DHT22;45277;52.768;18.262;2022-08-06T00:48:00;20.20;99.90
59469;DHT22;45277;52.768;18.262;2022-08-06T00:49:32;20.30;99.90
59469;DHT22;45277;52.768;18.262;2022-08-06T00:51:04;20.30;99.90
59469;DHT22;45277;52.768;18.262;2022-08-06T00:52:37;20.30;99.90
59469;DHT22;45277;52.768;18.262;2022-08-06T00:54:08;20.30;99.90
59469;DHT22;45277;52.768;18.262;2022-08-06T00:55:46;20.30;99.90
59469;DHT22;45277;52.768;18.262;2022-08-06T00:57:17;20.30;99.90
59469;DHT22;45277;52.768;18.262;2022-08-06T00:58:49;20.20;99.90
59469;DHT22;45277;52.768;18.262;2022-08-06T01:00:23;20.20;99.90
59469;DHT22;45277;52.768;18.262;2022-08-06T01:01:55;20.20;99.90
59469;DHT22;45277;52.768;18.262;2022-08-06T01:03:27;20.20;99.90
59469;DHT22;45277;52.768;18.262;2022-08-06T01:04:58;20.20;99.90
59469;DHT22;45277;52.768;18.262;2022-08-06T01:06:30;20.20;99.90
59469;DHT22;45277;52.768;18.262;2022-08-06T01:08:08;20.10;99.90
59469;DHT22;45277;52.768;18.262;2022-08-06T01:09:40;20.10;99.90
59469;DHT22;45277;52.768;18.262;2022-08-06T01:11:12;20.10;99.90
59469;DHT22;45277;52.768;18.262;2022-08-06T01:12:51;20.10;99.90
59469;DHT22;45277;52.768;18.262;2022-08-06T01:14:24;20.10;99.90
59469;DHT22;45277;52.768;18.262;2022-08-06T01:18:23;20.00;99.90
59469;DHT22;45277;52.768;18.262;2022-08-06T01:20:15;20.00;99.90
59469;DHT22;45277;52.768;18.262;2022-08-06T01:23:46;20.00;99.90
59469;DHT22;45277;52.768;18.262;2022-08-06T01:27:32;20.00;99.90
59469;DHT22;45277;52.768;18.262;2022-08-06T01:29:25;20.00;99.90
59469;DHT22;45277;52.768;18.262;2022-08-06T01:31:10;20.00;99.90
59469;DHT22;45277;52.768;18.262;2022-08-06T01:33:00;20.00;99.90
59469;DHT22;45277;52.768;18.262;2022-08-06T01:34:37;20.00;99.90
59469;DHT22;45277;52.768;18.262;2022-08-06T01:38:12;19.90;99.90
59469;DHT22;45277;52.768;18.262;2022-08-06T01:39:49;19.90;99.90
59469;DHT22;45277;52.768;18.262;2022-08-06T01:41:24;19.90;99.90
59469;DHT22;45277;52.768;18.262;2022-08-06T01:43:20;19.90;99.90
59469;DHT22;45277;52.768;18.262;2022-08-06T01:44:56;19.90;99.90
59469;DHT22;45277;52.768;18.262;2022-08-06T01:46:33;19.90;99.90
59469;DHT22;45277;52.768;18.262;2022-08-06T01:48:12;19.90;99.90
59469;DHT22;45277;52.768;18.262;2022-08-06T01:49:56;19.90;99.90
59469;DHT22;45277;52.768;18.262;2022-08-06T01:51:29;19.90;99.90
59469;DHT22;45277;52.768;18.262;2022-08-06T01:53:03;19.90;99.90
59469;DHT22;45277;52.768;18.262;2022-08-06T01:54:38;19.90;99.90
59469;DHT22;45277;52.768;18.262;2022-08-06T01:56:10;19.80;99.90
59469;DHT22;45277;52.768;18.262;2022-08-06T01:57:52;19.90;99.90
59469;DHT22;45277;52.768;18.262;2022-08-06T01:59:32;19.80;99.90
59469;DHT22;45277;52.768;18.262;2022-08-06T02:01:10;19.80;99.90
59469;DHT22;45277;52.768;18.262;2022-08-06T02:02:44;19.80;99.90
59469;DHT22;45277;52.768;18.262;2022-08-06T02:04:18;19.70;99.90
59469;DHT22;45277;52.768;18.262;2022-08-06T02:05:53;19.70;99.90
59469;DHT22;45277;52.768;18.262;2022-08-06T02:07:32;19.70;99.90
59469;DHT22;45277;52.768;18.262;2022-08-06T02:09:08;19.60;99.90
59469;DHT22;45277;52.768;18.262;2022-08-06T02:10:42;19.60;99.90
59469;DHT22;45277;52.768;18.262;2022-08-06T02:12:19;19.60;99.90
59469;DHT22;45277;52.768;18.262;2022-08-06T02:13:53;19.60;99.90
59469;DHT22;45277;52.768;18.262;2022-08-06T02:15:30;19.50;99.90
59469;DHT22;45277;52.768;18.262;2022-08-06T02:17:04;19.50;99.90
59469;DHT22;45277;52.768;18.262;2022-08-06T02:18:40;19.40;99.90
59469;DHT22;45277;52.768;18.262;2022-08-06T02:20:15;19.40;99.90
59469;DHT22;45277;52.768;18.262;2022-08-06T02:21:49;19.40;99.90
59469;DHT22;45277;52.768;18.262;2022-08-06T02:23:28;19.40;99.90
59469;DHT22;45277;52.768;18.262;2022-08-06T02:25:03;19.40;99.90
59469;DHT22;45277;52.768;18.262;2022-08-06T02:26:40;19.40;99.90
59469;DHT22;45277;52.768;18.262;2022-08-06T02:28:14;19.40;99.90
59469;DHT22;45277;52.768;18.262;2022-08-06T02:29:50;19.30;99.90
59469;DHT22;45277;52.768;18.262;2022-08-06T02:31:23;19.30;99.90
59469;DHT22;45277;52.768;18.262;2022-08-06T02:32:55;19.30;99.90
59469;DHT22;45277;52.768;18.262;2022-08-06T02:34:29;19.30;99.90
59469;DHT22;45277;52.768;18.262;2022-08-06T02:36:12;19.30;99.90
59469;DHT22;45277;52.768;18.262;2022-08-06T02:37:56;19.30;99.90
59469;DHT22;45277;52.768;18.262;2022-08-06T02:39:42;19.20;99.90
59469;DHT22;45277;52.768;18.262;2022-08-06T02:43:12;19.20;99.90
59469;DHT22;45277;52.768;18.262;2022-08-06T02:44:51;19.20;99.90
59469;DHT22;45277;52.768;18.262;2022-08-06T02:46:36;19.20;99.90
59469;DHT22;45277;52.768;18.262;2022-08-06T02:48:30;19.20;99.90
59469;DHT22;45277;52.768;18.262;2022-08-06T02:50:07;19.10;99.90
59469;DHT22;45277;52.768;18.262;2022-08-06T02:51:45;19.10;99.90
59469;DHT22;45277;52.768;18.262;2022-08-06T02:53:29;19.10;99.90
59469;DHT22;45277;52.768;18.262;2022-08-06T02:55:12;19.10;99.90
59469;DHT22;45277;52.768;18.262;2022-08-06T02:56:48;19.10;99.90
59469;DHT22;45277;52.768;18.262;2022-08-06T02:58:32;19.00;99.90
59469;DHT22;45277;52.768;18.262;2022-08-06T03:00:08;19.00;99.90
59469;DHT22;45277;52.768;18.262;2022-08-06T03:01:45;18.90;99.90
59469;DHT22;45277;52.768;18.262;2022-08-06T03:03:24;18.90;99.90
59469;DHT22;45277;52.768;18.262;2022-08-06T03:04:57;18.80;99.90
59469;DHT22;45277;52.768;18.262;2022-08-06T03:06:33;18.80;99.90
59469;DHT22;45277;52.768;18.262;2022-08-06T03:08:06;18.70;99.90
59469;DHT22;45277;52.768;18.262;2022-08-06T03:09:46;18.70;99.90
59469;DHT22;45277;52.768;18.262;2022-08-06T03:11:19;18.70;99.90
59469;DHT22;45277;52.768;18.262;2022-08-06T03:12:54;18.70;99.90
59469;DHT22;45277;52.768;18.262;2022-08-06T03:14:32;18.60;99.90
59469;DHT22;45277;52.768;18.262;2022-08-06T03:16:06;18.60;99.90
59469;DHT22;45277;52.768;18.262;2022-08-06T03:17:40;18.60;99.90
59469;DHT22;45277;52.768;18.262;2022-08-06T03:19:14;18.50;99.90
59469;DHT22;45277;52.768;18.262;2022-08-06T03:20:46;18.50;99.90
59469;DHT22;45277;52.768;18.262;2022-08-06T03:22:20;18.50;99.90
59469;DHT22;45277;52.768;18.262;2022-08-06T03:23:53;18.50;99.90
59469;DHT22;45277;52.768;18.262;2022-08-06T03:25:26;18.50;99.90
59469;DHT22;45277;52.768;18.262;2022-08-06T03:27:00;18.40;99.90
59469;DHT22;45277;52.768;18.262;2022-08-06T03:28:33;18.40;99.90
59469;DHT22;45277;52.768;18.262;2022-08-06T03:30:06;18.40;99.90
59469;DHT22;45277;52.768;18.262;2022-08-06T03:31:40;18.30;99.90
59469;DHT22;45277;52.768;18.262;2022-08-06T03:33:14;18.40;99.90
59469;DHT22;45277;52.768;18.262;2022-08-06T03:34:47;18.30;99.90
59469;DHT22;45277;52.768;18.262;2022-08-06T03:36:21;18.30;99.90
59469;DHT22;45277;52.768;18.262;2022-08-06T03:37:56;18.30;99.90
59469;DHT22;45277;52.768;18.262;2022-08-06T03:39:32;18.30;99.90
59469;DHT22;45277;52.768;18.262;2022-08-06T03:41:07;18.30;99.90
59469;DHT22;45277;52.768;18.262;2022-08-06T03:42:39;18.30;99.90
59469;DHT22;45277;52.768;18.262;2022-08-06T03:44:10;18.30;99.90
59469;DHT22;45277;52.768;18.262;2022-08-06T03:45:48;18.30;99.90
59469;DHT22;45277;52.768;18.262;2022-08-06T03:47:25;18.30;99.90
59469;DHT22;45277;52.768;18.262;2022-08-06T03:49:14;18.30;99.90
59469;DHT22;45277;52.768;18.262;2022-08-06T03:50:54;18.30;99.90
59469;DHT22;45277;52.768;18.262;2022-08-06T03:52:30;18.20;99.90
59469;DHT22;45277;52.768;18.262;2022-08-06T03:54:04;18.20;99.90
59469;DHT22;45277;52.768;18.262;2022-08-06T03:55:38;18.20;99.90
59469;DHT22;45277;52.768;18.262;2022-08-06T03:57:14;18.20;99.90
59469;DHT22;45277;52.768;18.262;2022-08-06T03:58:47;18.20;99.90
59469;DHT22;45277;52.768;18.262;2022-08-06T04:00:24;18.10;99.90
59469;DHT22;45277;52.768;18.262;2022-08-06T04:01:57;18.10;99.90
59469;DHT22;45277;52.768;18.262;2022-08-06T04:03:32;18.10;99.90
59469;DHT22;45277;52.768;18.262;2022-08-06T04:05:07;18.10;99.90
59469;DHT22;45277;52.768;18.262;2022-08-06T04:06:39;18.10;99.90
59469;DHT22;45277;52.768;18.262;2022-08-06T04:08:13;18.10;99.90
59469;DHT22;45277;52.768;18.262;2022-08-06T04:09:46;18.10;99.90
59469;DHT22;45277;52.768;18.262;2022-08-06T04:11:19;18.10;99.90
59469;DHT22;45277;52.768;18.262;2022-08-06T04:12:52;18.10;99.90
59469;DHT22;45277;52.768;18.262;2022-08-06T04:14:25;18.10;99.90
59469;DHT22;45277;52.768;18.262;2022-08-06T04:15:57;18.10;99.90
59469;DHT22;45277;52.768;18.262;2022-08-06T04:17:31;18.10;99.90
59469;DHT22;45277;52.768;18.262;2022-08-06T04:19:05;18.10;99.90
59469;DHT22;45277;52.768;18.262;2022-08-06T04:20:44;18.10;99.90
59469;DHT22;45277;52.768;18.262;2022-08-06T04:22:18;18.10;99.90
59469;DHT22;45277;52.768;18.262;2022-08-06T04:23:52;18.10;99.90
59469;DHT22;45277;52.768;18.262;2022-08-06T04:25:28;18.10;99.90
59469;DHT22;45277;52.768;18.262;2022-08-06T04:27:03;18.20;99.90
59469;DHT22;45277;52.768;18.262;2022-08-06T04:28:40;18.20;99.90
59469;DHT22;45277;52.768;18.262;2022-08-06T04:30:13;18.20;99.90
59469;DHT22;45277;52.768;18.262;2022-08-06T04:31:47;18.20;99.90
59469;DHT22;45277;52.768;18.262;2022-08-06T04:33:23;18.10;99.90
59469;DHT22;45277;52.768;18.262;2022-08-06T04:34:57;18.10;99.90
59469;DHT22;45277;52.768;18.262;2022-08-06T04:36:31;18.00;99.90
59469;DHT22;45277;52.768;18.262;2022-08-06T04:38:04;18.00;99.90
59469;DHT22;45277;52.768;18.262;2022-08-06T04:39:42;17.90;99.90
59469;DHT22;45277;52.768;18.262;2022-08-06T04:41:15;17.90;99.90
59469;DHT22;45277;52.768;18.262;2022-08-06T04:42:49;17.90;99.90
59469;DHT22;45277;52.768;18.262;2022-08-06T04:44:22;17.80;99.90
59469;DHT22;45277;52.768;18.262;2022-08-06T04:45:58;17.80;99.90
59469;DHT22;45277;52.768;18.262;2022-08-06T04:47:31;17.70;99.90
59469;DHT22;45277;52.768;18.262;2022-08-06T04:49:03;17.70;99.90
59469;DHT22;45277;52.768;18.262;2022-08-06T04:50:38;17.50;99.90
59469;DHT22;45277;52.768;18.262;2022-08-06T04:52:23;17.50;99.90
59469;DHT22;45277;52.768;18.262;2022-08-06T04:53:54;17.50;99.90
59469;DHT22;45277;52.768;18.262;2022-08-06T04:55:28;17.40;99.90
59469;DHT22;45277;52.768;18.262;2022-08-06T04:57:00;17.30;99.90
59469;DHT22;45277;52.768;18.262;2022-08-06T04:58:33;17.20;99.90
59469;DHT22;45277;52.768;18.262;2022-08-06T05:00:05;17.20;99.90
59469;DHT22;45277;52.768;18.262;2022-08-06T05:01:44;17.10;99.90
59469;DHT22;45277;52.768;18.262;2022-08-06T05:03:16;17.10;99.90
59469;DHT22;45277;52.768;18.262;2022-08-06T05:04:50;17.10;99.90
59469;DHT22;45277;52.768;18.262;2022-08-06T05:08:23;16.90;99.90
59469;DHT22;45277;52.768;18.262;2022-08-06T05:09:58;16.80;99.90
59469;DHT22;45277;52.768;18.262;2022-08-06T05:11:41;16.80;99.90
59469;DHT22;45277;52.768;18.262;2022-08-06T05:13:22;16.70;99.90
59469;DHT22;45277;52.768;18.262;2022-08-06T05:15:00;16.70;99.90
59469;DHT22;45277;52.768;18.262;2022-08-06T05:16:36;16.70;99.90
59469;DHT22;45277;52.768;18.262;2022-08-06T05:18:25;16.60;99.90
59469;DHT22;45277;52.768;18.262;2022-08-06T05:20:09;16.70;99.90
59469;DHT22;45277;52.768;18.262;2022-08-06T05:21:41;16.60;99.90
59469;DHT22;45277;52.768;18.262;2022-08-06T05:23:20;16.70;99.90
59469;DHT22;45277;52.768;18.262;2022-08-06T05:24:55;16.70;99.90
59469;DHT22;45277;52.768;18.262;2022-08-06T05:26:28;16.70;99.90
59469;DHT22;45277;52.768;18.262;2022-08-06T05:28:01;16.80;99.90
59469;DHT22;45277;52.768;18.262;2022-08-06T05:29:33;16.80;99.90
59469;DHT22;45277;52.768;18.262;2022-08-06T05:31:05;16.80;99.90
59469;DHT22;45277;52.768;18.262;2022-08-06T05:32:48;16.80;99.90
59469;DHT22;45277;52.768;18.262;2022-08-06T05:34:21;16.90;99.90
59469;DHT22;45277;52.768;18.262;2022-08-06T05:35:54;16.90;99.90
59469;DHT22;45277;52.768;18.262;2022-08-06T05:37:25;17.00;99.90
59469;DHT22;45277;52.768;18.262;2022-08-06T05:38:57;17.00;99.90
59469;DHT22;45277;52.768;18.262;2022-08-06T05:40:31;17.00;99.90
59469;DHT22;45277;52.768;18.262;2022-08-06T05:42:06;17.00;99.90
59469;DHT22;45277;52.768;18.262;2022-08-06T05:43:43;17.00;99.90
59469;DHT22;45277;52.768;18.262;2022-08-06T05:45:18;17.00;99.90
59469;DHT22;45277;52.768;18.262;2022-08-06T05:46:51;17.00;99.90
59469;DHT22;45277;52.768;18.262;2022-08-06T05:48:24;17.10;99.90
59469;DHT22;45277;52.768;18.262;2022-08-06T05:50:04;17.10;99.90
59469;DHT22;45277;52.768;18.262;2022-08-06T05:52:04;17.10;99.90
59469;DHT22;45277;52.768;18.262;2022-08-06T05:53:42;17.20;99.90
59469;DHT22;45277;52.768;18.262;2022-08-06T05:55:32;17.20;99.90
59469;DHT22;45277;52.768;18.262;2022-08-06T05:57:21;17.20;99.90
59469;DHT22;45277;52.768;18.262;2022-08-06T05:59:01;17.20;99.90
59469;DHT22;45277;52.768;18.262;2022-08-06T06:00:34;17.10;99.90
59469;DHT22;45277;52.768;18.262;2022-08-06T06:02:10;17.20;99.90
59469;DHT22;45277;52.768;18.262;2022-08-06T06:03:43;17.30;99.90
59469;DHT22;45277;52.768;18.262;2022-08-06T06:05:30;17.30;99.90
59469;DHT22;45277;52.768;18.262;2022-08-06T06:07:02;17.30;99.90
59469;DHT22;45277;52.768;18.262;2022-08-06T06:08:36;17.30;99.90
59469;DHT22;45277;52.768;18.262;2022-08-06T06:10:10;17.30;99.90
59469;DHT22;45277;52.768;18.262;2022-08-06T06:11:44;17.40;99.90
59469;DHT22;45277;52.768;18.262;2022-08-06T06:13:17;17.40;99.90
59469;DHT22;45277;52.768;18.262;2022-08-06T06:14:56;17.40;99.90
59469;DHT22;45277;52.768;18.262;2022-08-06T06:16:36;17.40;99.90
59469;DHT22;45277;52.768;18.262;2022-08-06T06:20:19;17.60;99.90
59469;DHT22;45277;52.768;18.262;2022-08-06T06:22:05;17.60;99.90
59469;DHT22;45277;52.768;18.262;2022-08-06T06:29:47;17.70;99.90
59469;DHT22;45277;52.768;18.262;2022-08-06T06:33:38;17.70;99.90
59469;DHT22;45277;52.768;18.262;2022-08-06T06:41:23;18.00;99.90
59469;DHT22;45277;52.768;18.262;2022-08-06T06:43:27;18.00;99.90
59469;DHT22;45277;52.768;18.262;2022-08-06T06:45:05;18.00;99.90
59469;DHT22;45277;52.768;18.262;2022-08-06T06:47:04;18.10;99.90
59469;DHT22;45277;52.768;18.262;2022-08-06T06:48:44;18.20;99.90
59469;DHT22;45277;52.768;18.262;2022-08-06T06:50:27;18.30;99.90
59469;DHT22;45277;52.768;18.262;2022-08-06T06:52:10;18.40;99.90
59469;DHT22;45277;52.768;18.262;2022-08-06T06:53:44;18.40;99.90
59469;DHT22;45277;52.768;18.262;2022-08-06T06:55:25;18.50;99.90
59469;DHT22;45277;52.768;18.262;2022-08-06T06:57:00;18.50;99.90
59469;DHT22;45277;52.768;18.262;2022-08-06T06:58:39;18.50;99.90
59469;DHT22;45277;52.768;18.262;2022-08-06T07:00:12;18.50;99.90
59469;DHT22;45277;52.768;18.262;2022-08-06T07:01:47;18.50;99.90
59469;DHT22;45277;52.768;18.262;2022-08-06T07:03:20;18.50;99.90
59469;DHT22;45277;52.768;18.262;2022-08-06T07:04:55;18.50;99.90
59469;DHT22;45277;52.768;18.262;2022-08-06T07:06:35;18.60;99.90
59469;DHT22;45277;52.768;18.262;2022-08-06T07:08:08;18.70;99.90
59469;DHT22;45277;52.768;18.262;2022-08-06T07:09:40;18.80;99.90
59469;DHT22;45277;52.768;18.262;2022-08-06T07:11:19;18.80;99.90
59469;DHT22;45277;52.768;18.262;2022-08-06T07:12:53;18.80;99.90
59469;DHT22;45277;52.768;18.262;2022-08-06T07:14:26;18.90;99.90
59469;DHT22;45277;52.768;18.262;2022-08-06T07:16:00;18.90;99.90
59469;DHT22;45277;52.768;18.262;2022-08-06T07:17:33;18.70;99.90
59469;DHT22;45277;52.768;18.262;2022-08-06T07:19:08;18.70;99.90
59469;DHT22;45277;52.768;18.262;2022-08-06T07:20:43;18.60;99.90
59469;DHT22;45277;52.768;18.262;2022-08-06T07:22:15;18.60;99.90
59469;DHT22;45277;52.768;18.262;2022-08-06T07:23:49;18.60;99.90
59469;DHT22;45277;52.768;18.262;2022-08-06T07:25:22;18.70;99.90
59469;DHT22;45277;52.768;18.262;2022-08-06T07:26:56;18.80;99.90
59469;DHT22;45277;52.768;18.262;2022-08-06T07:28:29;18.80;99.90
59469;DHT22;45277;52.768;18.262;2022-08-06T07:30:03;18.90;99.90
59469;DHT22;45277;52.768;18.262;2022-08-06T07:31:48;19.00;99.90
59469;DHT22;45277;52.768;18.262;2022-08-06T07:33:20;19.00;99.90
59469;DHT22;45277;52.768;18.262;2022-08-06T07:34:54;19.00;99.90
59469;DHT22;45277;52.768;18.262;2022-08-06T07:36:31;19.00;99.90
59469;DHT22;45277;52.768;18.262;2022-08-06T07:38:06;19.10;99.90
59469;DHT22;45277;52.768;18.262;2022-08-06T07:39:53;19.10;99.90
59469;DHT22;45277;52.768;18.262;2022-08-06T07:41:27;19.20;99.90
59469;DHT22;45277;52.768;18.262;2022-08-06T07:43:12;19.30;99.90
59469;DHT22;45277;52.768;18.262;2022-08-06T07:44:50;19.30;99.90
59469;DHT22;45277;52.768;18.262;2022-08-06T07:46:28;19.20;99.90
59469;DHT22;45277;52.768;18.262;2022-08-06T07:48:07;19.20;99.90
59469;DHT22;45277;52.768;18.262;2022-08-06T07:49:43;19.10;99.90
59469;DHT22;45277;52.768;18.262;2022-08-06T07:51:16;19.00;99.90
59469;DHT22;45277;52.768;18.262;2022-08-06T07:52:48;19.00;99.90
59469;DHT22;45277;52.768;18.262;2022-08-06T07:54:22;19.00;99.90
59469;DHT22;45277;52.768;18.262;2022-08-06T07:55:56;19.20;99.90
59469;DHT22;45277;52.768;18.262;2022-08-06T07:57:35;19.30;99.90
59469;DHT22;45277;52.768;18.262;2022-08-06T07:59:09;19.30;99.90
59469;DHT22;45277;52.768;18.262;2022-08-06T08:00:41;19.30;99.90
59469;DHT22;45277;52.768;18.262;2022-08-06T08:02:13;19.30;99.90
59469;DHT22;45277;52.768;18.262;2022-08-06T08:03:47;19.40;99.90
59469;DHT22;45277;52.768;18.262;2022-08-06T08:05:44;19.40;99.90
59469;DHT22;45277;52.768;18.262;2022-08-06T08:07:36;19.40;99.90
59469;DHT22;45277;52.768;18.262;2022-08-06T08:09:14;19.40;99.90
59469;DHT22;45277;52.768;18.262;2022-08-06T08:10:47;19.40;99.90
59469;DHT22;45277;52.768;18.262;2022-08-06T08:12:21;19.60;99.90
59469;DHT22;45277;52.768;18.262;2022-08-06T08:14:02;19.60;99.90
59469;DHT22;45277;52.768;18.262;2022-08-06T08:15:38;19.60;99.90
59469;DHT22;45277;52.768;18.262;2022-08-06T08:17:10;19.60;99.90
59469;DHT22;45277;52.768;18.262;2022-08-06T08:18:42;19.70;99.90
59469;DHT22;45277;52.768;18.262;2022-08-06T08:20:13;19.80;99.90
59469;DHT22;45277;52.768;18.262;2022-08-06T08:21:47;19.90;99.90
59469;DHT22;45277;52.768;18.262;2022-08-06T08:23:18;19.90;99.90
59469;DHT22;45277;52.768;18.262;2022-08-06T08:24:55;19.90;99.90
59469;DHT22;45277;52.768;18.262;2022-08-06T08:26:28;20.00;99.90
59469;DHT22;45277;52.768;18.262;2022-08-06T08:28:01;20.00;99.90
59469;DHT22;45277;52.768;18.262;2022-08-06T08:29:32;20.00;99.90
59469;DHT22;45277;52.768;18.262;2022-08-06T08:31:04;20.00;99.90
59469;DHT22;45277;52.768;18.262;2022-08-06T08:32:39;20.00;99.90
59469;DHT22;45277;52.768;18.262;2022-08-06T08:34:12;20.10;99.90
59469;DHT22;45277;52.768;18.262;2022-08-06T08:35:50;20.20;99.90
59469;DHT22;45277;52.768;18.262;2022-08-06T08:37:21;20.10;99.90
59469;DHT22;45277;52.768;18.262;2022-08-06T08:38:55;20.20;99.90
59469;DHT22;45277;52.768;18.262;2022-08-06T08:40:31;20.30;99.90
59469;DHT22;45277;52.768;18.262;2022-08-06T08:42:10;20.40;99.90
59469;DHT22;45277;52.768;18.262;2022-08-06T08:43:48;20.50;99.90
59469;DHT22;45277;52.768;18.262;2022-08-06T08:45:22;20.50;99.90
59469;DHT22;45277;52.768;18.262;2022-08-06T08:46:58;20.40;99.90
59469;DHT22;45277;52.768;18.262;2022-08-06T08:48:31;20.40;99.90
59469;DHT22;45277;52.768;18.262;2022-08-06T08:50:05;20.30;99.90
59469;DHT22;45277;52.768;18.262;2022-08-06T08:51:40;20.50;99.90
59469;DHT22;45277;52.768;18.262;2022-08-06T08:53:14;20.70;99.90
59469;DHT22;45277;52.768;18.262;2022-08-06T08:54:48;20.90;98.80
59469;DHT22;45277;52.768;18.262;2022-08-06T08:56:23;20.90;96.80
59469;DHT22;45277;52.768;18.262;2022-08-06T08:57:55;20.80;98.20
59469;DHT22;45277;52.768;18.262;2022-08-06T08:59:29;20.60;98.10
59469;DHT22;45277;52.768;18.262;2022-08-06T09:01:07;20.60;99.90
59469;DHT22;45277;52.768;18.262;2022-08-06T09:02:42;20.60;99.30
59469;DHT22;45277;52.768;18.262;2022-08-06T09:04:14;20.50;99.90
59469;DHT22;45277;52.768;18.262;2022-08-06T09:05:46;20.60;97.70
59469;DHT22;45277;52.768;18.262;2022-08-06T09:07:21;20.60;95.80
59469;DHT22;45277;52.768;18.262;2022-08-06T09:08:52;20.70;98.30
59469;DHT22;45277;52.768;18.262;2022-08-06T09:10:25;20.80;94.00
59469;DHT22;45277;52.768;18.262;2022-08-06T09:11:59;20.90;93.60
59469;DHT22;45277;52.768;18.262;2022-08-06T09:13:36;21.00;92.40
59469;DHT22;45277;52.768;18.262;2022-08-06T09:15:08;21.00;92.50
59469;DHT22;45277;52.768;18.262;2022-08-06T09:16:41;21.00;92.50
59469;DHT22;45277;52.768;18.262;2022-08-06T09:18:13;21.00;94.40
59469;DHT22;45277;52.768;18.262;2022-08-06T09:19:46;21.00;94.00
59469;DHT22;45277;52.768;18.262;2022-08-06T09:21:19;20.70;95.80
59469;DHT22;45277;52.768;18.262;2022-08-06T09:22:58;20.60;99.10
59469;DHT22;45277;52.768;18.262;2022-08-06T09:24:31;20.40;99.50
59469;DHT22;45277;52.768;18.262;2022-08-06T09:26:05;20.40;99.90
59469;DHT22;45277;52.768;18.262;2022-08-06T09:27:37;20.50;97.50
59469;DHT22;45277;52.768;18.262;2022-08-06T09:29:21;20.70;94.20
59469;DHT22;45277;52.768;18.262;2022-08-06T09:32:42;21.30;82.00
59469;DHT22;45277;52.768;18.262;2022-08-06T09:34:14;21.50;81.60
59469;DHT22;45277;52.768;18.262;2022-08-06T09:36:06;21.70;81.30
59469;DHT22;45277;52.768;18.262;2022-08-06T09:37:38;21.80;82.00
59469;DHT22;45277;52.768;18.262;2022-08-06T09:39:10;21.90;75.90
59469;DHT22;45277;52.768;18.262;2022-08-06T09:41:08;22.10;76.90
59469;DHT22;45277;52.768;18.262;2022-08-06T09:42:43;22.00;78.40
59469;DHT22;45277;52.768;18.262;2022-08-06T09:44:16;21.80;79.30
59469;DHT22;45277;52.768;18.262;2022-08-06T09:45:50;21.60;78.30
59469;DHT22;45277;52.768;18.262;2022-08-06T09:47:21;21.40;81.40
59469;DHT22;45277;52.768;18.262;2022-08-06T09:48:57;21.30;90.20
59469;DHT22;45277;52.768;18.262;2022-08-06T09:50:47;21.20;85.80
59469;DHT22;45277;52.768;18.262;2022-08-06T09:52:19;21.30;88.70
59469;DHT22;45277;52.768;18.262;2022-08-06T09:53:55;21.30;74.80
59469;DHT22;45277;52.768;18.262;2022-08-06T09:55:31;21.40;68.40
59469;DHT22;45277;52.768;18.262;2022-08-06T09:57:04;21.30;66.80
59469;DHT22;45277;52.768;18.262;2022-08-06T09:58:36;21.30;71.70
59469;DHT22;45277;52.768;18.262;2022-08-06T10:00:10;21.60;72.50
59469;DHT22;45277;52.768;18.262;2022-08-06T10:01:47;21.90;67.70
59469;DHT22;45277;52.768;18.262;2022-08-06T10:03:38;22.20;61.20
59469;DHT22;45277;52.768;18.262;2022-08-06T10:05:13;22.30;47.00
59469;DHT22;45277;52.768;18.262;2022-08-06T10:06:59;22.40;57.20
59469;DHT22;45277;52.768;18.262;2022-08-06T10:08:30;23.00;46.20
59469;DHT22;45277;52.768;18.262;2022-08-06T10:10:04;23.00;41.10
59469;DHT22;45277;52.768;18.262;2022-08-06T10:11:39;23.20;51.00
59469;DHT22;45277;52.768;18.262;2022-08-06T10:13:26;23.40;38.30
59469;DHT22;45277;52.768;18.262;2022-08-06T10:14:57;23.50;33.10
59469;DHT22;45277;52.768;18.262;2022-08-06T10:16:30;23.50;30.70
59469;DHT22;45277;52.768;18.262;2022-08-06T10:18:02;23.40;28.80
59469;DHT22;45277;52.768;18.262;2022-08-06T10:19:36;23.20;30.60
59469;DHT22;45277;52.768;18.262;2022-08-06T10:21:15;23.00;30.60
59469;DHT22;45277;52.768;18.262;2022-08-06T10:22:52;23.10;31.20
59469;DHT22;45277;52.768;18.262;2022-08-06T10:24:26;23.30;30.00
59469;DHT22;45277;52.768;18.262;2022-08-06T10:26:00;23.80;31.00
59469;DHT22;45277;52.768;18.262;2022-08-06T10:27:34;24.50;30.00